Time;durP1;ratioP1;P1;durP2;ratioP2;P2;SDS_P1;SDS_P2;PMS_P1;PMS_P2;Temp;Humidity;BMP_temperature;BMP_pressure;BME280_temperature;BME280_humidity;BME280_pressure;Samples;Min_cycle;Max_cycle;Signal;HPM_P1;HPM_P2
2022/03/05 00:00:15;;;;;;;;;;;;;;;14.40;50.96;101766.94;1035968;28;1701;-61
2022/03/05 00:01:05;;;;;;;;;;;;;;;14.39;51.02;101759.84;1042405;28;2133;-61
2022/03/05 00:01:56;;;;;;;;;;;;;;;14.39;50.50;101767.91;1041550;28;749;-61
2022/03/05 00:02:46;;;;;;;;;;;;;;;14.37;50.87;101770.69;1041891;28;729;-60
2022/03/05 00:03:37;;;;;;;;;;;;;;;14.37;50.45;101762.66;1041692;28;769;-60
2022/03/05 00:04:27;;;;;;;;;;;;;;;14.37;50.63;101765.31;1041686;28;705;-60
2022/03/05 00:05:17;;;;;;;;;;;;;;;14.37;50.98;101759.09;1042427;28;773;-60
2022/03/05 00:06:08;;;;;;;;;;;;;;;14.37;50.93;101759.09;1041724;28;795;-61
2022/03/05 00:06:58;;;;;;;;;;;;;;;14.36;50.56;101766.28;1041723;28;1880;-60
2022/03/05 00:07:49;;;;;;;;;;;;;;;14.34;50.91;101762.84;1042369;28;775;-60
2022/03/05 00:08:39;;;;;;;;;;;;;;;14.35;50.48;101761.03;1041676;28;765;-60
2022/03/05 00:09:30;;;;;;;;;;;;;;;14.35;50.99;101759.19;1042412;28;705;-60
2022/03/05 00:10:21;;;;;;;;;;;;;;;14.35;50.98;101761.03;1041785;28;774;-60
2022/03/05 00:11:11;;;;;;;;;;;;;;;14.34;51.21;101765.53;1042205;28;841;-60
2022/03/05 00:12:02;;;;;;;;;;;;;;;14.34;50.97;101760.16;1042447;28;1352;-60
2022/03/05 00:12:52;;;;;;;;;;;;;;;14.33;50.46;101762.97;1041752;28;717;-60
2022/03/05 00:13:42;;;;;;;;;;;;;;;14.33;50.31;101763.78;1041707;28;737;-60
2022/03/05 00:14:33;;;;;;;;;;;;;;;14.32;50.92;101759.44;1041433;28;1846;-60
2022/03/05 00:15:24;;;;;;;;;;;;;;;14.31;50.70;101764.88;1037206;28;1813;-61
2022/03/05 00:16:14;;;;;;;;;;;;;;;14.30;50.38;101763.16;1042255;28;758;-60
2022/03/05 00:17:05;;;;;;;;;;;;;;;14.30;50.03;101771.22;1041640;28;727;-61
2022/03/05 00:17:55;;;;;;;;;;;;;;;14.30;50.43;101771.22;1041649;28;765;-60
2022/03/05 00:18:45;;;;;;;;;;;;;;;14.31;50.03;101763.06;1042117;28;1858;-61
2022/03/05 00:19:36;;;;;;;;;;;;;;;14.31;50.16;101760.38;1041685;28;1939;-61
2022/03/05 00:20:26;;;;;;;;;;;;;;;14.29;50.41;101756.94;1041601;28;1964;-60
2022/03/05 00:21:17;;;;;;;;;;;;;;;14.30;50.37;101763.16;1041750;28;792;-60
2022/03/05 00:22:07;;;;;;;;;;;;;;;14.28;50.75;101754.34;1041826;28;756;-61
2022/03/05 00:22:58;;;;;;;;;;;;;;;14.27;50.57;101760.69;1041593;28;807;-61
2022/03/05 00:23:48;;;;;;;;;;;;;;;14.27;50.49;101761.53;1041727;28;748;-60
2022/03/05 00:24:38;;;;;;;;;;;;;;;14.25;50.76;101761.63;1042502;28;935;-60
2022/03/05 00:25:29;;;;;;;;;;;;;;;14.25;50.27;101761.63;1041650;28;697;-61
2022/03/05 00:26:19;;;;;;;;;;;;;;;14.24;51.12;101759.91;1041655;28;905;-61
2022/03/05 00:27:10;;;;;;;;;;;;;;;14.24;51.05;101764.41;1041625;28;899;-61
2022/03/05 00:28:00;;;;;;;;;;;;;;;14.24;50.56;101762.59;1041771;28;711;-61
2022/03/05 00:28:51;;;;;;;;;;;;;;;14.23;51.02;101762.69;1041635;28;764;-60
2022/03/05 00:29:41;;;;;;;;;;;;;;;14.23;50.98;101757.34;1041600;28;1975;-60
2022/03/05 00:30:31;;;;;;;;;;;;;;;14.23;50.98;101752.84;1041957;28;1949;-61
2022/03/05 00:31:22;;;;;;;;;;;;;;;14.23;50.65;101762.69;1033534;28;768;-61
2022/03/05 00:32:12;;;;;;;;;;;;;;;14.22;50.35;101756.47;1034126;28;693;-60
2022/03/05 00:33:03;;;;;;;;;;;;;;;14.21;50.57;101765.47;1034148;28;697;-62
2022/03/05 00:33:53;;;;;;;;;;;;;;;14.22;50.62;101761.84;1033902;28;713;-60
2022/03/05 00:34:43;;;;;;;;;;;;;;;14.21;50.67;101759.25;1039964;28;2001;-60
2022/03/05 00:35:34;;;;;;;;;;;;;;;14.21;50.42;101757.44;1041669;28;923;-62
2022/03/05 00:36:24;;;;;;;;;;;;;;;14.21;51.17;101759.25;1041601;28;1984;-60
2022/03/05 00:37:15;;;;;;;;;;;;;;;14.22;50.41;101766.34;1041574;28;856;-60
2022/03/05 00:38:06;;;;;;;;;;;;;;;14.21;50.75;101761.94;1041695;28;1983;-60
2022/03/05 00:38:56;;;;;;;;;;;;;;;14.17;50.51;101758.59;1042285;28;779;-60
2022/03/05 00:39:47;;;;;;;;;;;;;;;14.17;50.56;101755.91;1041641;28;840;-61
2022/03/05 00:40:39;;;;;;;;;;;;;;;14.17;50.92;101752.38;1041758;28;693;-61
2022/03/05 00:41:29;;;;;;;;;;;;;;;14.16;50.99;101756.00;1042072;28;795;-61
2022/03/05 00:42:20;;;;;;;;;;;;;;;14.15;50.53;101755.16;1034151;28;668;-60
2022/03/05 00:43:10;;;;;;;;;;;;;;;14.16;50.85;101750.63;1033915;28;830;-61
2022/03/05 00:44:01;;;;;;;;;;;;;;;14.15;50.94;101749.78;1033998;28;782;-60
2022/03/05 00:44:51;;;;;;;;;;;;;;;14.15;50.85;101751.63;1039830;28;1983;-61
2022/03/05 00:45:41;;;;;;;;;;;;;;;14.15;50.26;101748.94;1034090;28;852;-62
2022/03/05 00:46:32;;;;;;;;;;;;;;;14.14;50.42;101752.59;1034038;28;698;-61
2022/03/05 00:47:22;;;;;;;;;;;;;;;14.13;51.07;101756.22;1034090;28;699;-61
2022/03/05 00:48:13;;;;;;;;;;;;;;;14.12;50.62;101750.00;1032806;28;1166;-60
2022/03/05 00:49:03;;;;;;;;;;;;;;;14.11;51.14;101750.97;1034018;28;683;-60
2022/03/05 00:49:54;;;;;;;;;;;;;;;14.13;50.54;101748.19;1034086;28;767;-61
2022/03/05 00:50:44;;;;;;;;;;;;;;;14.12;51.23;101750.00;1034131;28;781;-62
2022/03/05 00:51:34;;;;;;;;;;;;;;;14.11;51.31;101753.66;1033481;28;786;-60
2022/03/05 00:52:25;;;;;;;;;;;;;;;14.11;51.27;101750.09;1035999;28;1916;-61
2022/03/05 00:53:17;;;;;;;;;;;;;;;14.12;50.25;101749.16;1041612;28;792;-60
2022/03/05 00:54:08;;;;;;;;;;;;;;;14.11;50.39;101753.66;1042069;28;799;-60
2022/03/05 00:54:59;;;;;;;;;;;;;;;14.10;50.57;101749.25;1041532;28;721;-60
2022/03/05 00:55:49;;;;;;;;;;;;;;;14.11;50.70;101750.97;1041587;28;678;-60
2022/03/05 00:56:39;;;;;;;;;;;;;;;14.09;51.36;101752.88;1041674;28;697;-60
2022/03/05 00:57:30;;;;;;;;;;;;;;;14.10;51.15;101751.06;1041591;28;766;-60
2022/03/05 00:58:20;;;;;;;;;;;;;;;14.08;50.88;101752.97;1041482;28;1894;-59
2022/03/05 00:59:11;;;;;;;;;;;;;;;14.05;51.20;101753.19;1041604;28;638;-60
2022/03/05 01:00:01;;;;;;;;;;;;;;;14.07;51.00;101757.47;1033555;28;768;-60
2022/03/05 01:00:52;;;;;;;;;;;;;;;14.06;51.32;101757.56;1036133;28;1778;-60
2022/03/05 01:01:43;;;;;;;;;;;;;;;14.07;51.10;101754.81;1042254;28;677;-60
2022/03/05 01:02:33;;;;;;;;;;;;;;;14.09;50.39;101762.75;1041531;28;761;-60
2022/03/05 01:03:24;;;;;;;;;;;;;;;14.06;50.38;101755.75;1041679;28;775;-61
2022/03/05 01:04:14;;;;;;;;;;;;;;;14.06;50.57;101755.75;1041572;28;736;-60
2022/03/05 01:05:05;;;;;;;;;;;;;;;14.06;51.32;101752.22;1041643;28;772;-60
2022/03/05 01:05:55;;;;;;;;;;;;;;;14.03;50.61;101766.69;1041591;28;709;-60
2022/03/05 01:06:46;;;;;;;;;;;;;;;14.03;50.65;101761.31;1041521;28;917;-60
2022/03/05 01:07:36;;;;;;;;;;;;;;;14.04;51.14;101764.84;1041776;28;867;-60
2022/03/05 01:08:26;;;;;;;;;;;;;;;14.04;50.97;101767.53;1042331;28;763;-60
2022/03/05 01:09:17;;;;;;;;;;;;;;;14.03;50.74;101760.44;1041398;28;1971;-60
2022/03/05 01:10:07;;;;;;;;;;;;;;;14.02;51.63;101772.13;1041611;28;721;-61
2022/03/05 01:10:58;;;;;;;;;;;;;;;14.01;50.82;101763.22;1042083;28;723;-60
2022/03/05 01:11:48;;;;;;;;;;;;;;;14.02;51.15;101770.31;1041512;28;1865;-60
2022/03/05 01:12:39;;;;;;;;;;;;;;;14.00;51.49;101769.53;1041559;28;756;-60
2022/03/05 01:13:29;;;;;;;;;;;;;;;14.00;52.04;101774.91;1041644;28;696;-60
2022/03/05 01:14:19;;;;;;;;;;;;;;;13.98;51.30;101768.78;1041555;28;694;-59
2022/03/05 01:15:10;;;;;;;;;;;;;;;13.99;51.97;101767.81;1041442;28;1852;-60
2022/03/05 01:16:00;;;;;;;;;;;;;;;13.96;51.84;101770.72;1041708;28;706;-59
2022/03/05 01:16:51;;;;;;;;;;;;;;;13.98;51.82;101767.91;1042040;28;1856;-60
2022/03/05 01:17:41;;;;;;;;;;;;;;;13.99;51.34;101770.50;1041641;28;992;-60
2022/03/05 01:18:32;;;;;;;;;;;;;;;13.98;51.76;101775.97;1041511;28;1956;-60
2022/03/05 01:19:22;;;;;;;;;;;;;;;13.96;52.02;101775.22;1034029;28;757;-61
2022/03/05 01:20:13;;;;;;;;;;;;;;;13.97;51.56;101777.81;1029144;28;725;-61
2022/03/05 01:21:03;;;;;;;;;;;;;;;13.99;50.91;101770.50;1029177;28;789;-61
2022/03/05 01:21:53;;;;;;;;;;;;;;;13.99;51.71;101773.19;1033318;28;706;-60
2022/03/05 01:22:44;;;;;;;;;;;;;;;13.96;51.41;101781.44;1031744;28;697;-61
2022/03/05 01:23:34;;;;;;;;;;;;;;;13.97;51.74;101775.13;1031858;28;836;-61
2022/03/05 01:24:25;;;;;;;;;;;;;;;13.94;51.12;101775.31;1035588;28;1916;-61
2022/03/05 01:25:15;;;;;;;;;;;;;;;13.94;51.36;101772.63;1042148;28;773;-60
2022/03/05 01:26:06;;;;;;;;;;;;;;;13.95;52.27;101779.72;1042063;28;1931;-60
2022/03/05 01:26:56;;;;;;;;;;;;;;;13.93;52.15;101772.75;1041522;28;740;-60
2022/03/05 01:27:46;;;;;;;;;;;;;;;13.93;52.23;101776.28;1033956;28;952;-61
2022/03/05 01:28:37;;;;;;;;;;;;;;;13.93;52.20;101776.28;1033918;28;634;-61
2022/03/05 01:29:27;;;;;;;;;;;;;;;13.94;51.30;101775.31;1033909;28;663;-60
2022/03/05 01:30:18;;;;;;;;;;;;;;;13.93;52.16;101776.28;1037677;28;1782;-60
2022/03/05 01:31:08;;;;;;;;;;;;;;;13.94;51.61;101780.69;1031683;28;637;-60
2022/03/05 01:31:59;;;;;;;;;;;;;;;13.93;51.94;101776.28;1031449;28;701;-60
2022/03/05 01:32:49;;;;;;;;;;;;;;;13.90;52.26;101771.97;1033913;28;1023;-61
2022/03/05 01:33:39;;;;;;;;;;;;;;;13.92;52.09;101774.56;1033984;28;745;-60
2022/03/05 01:34:30;;;;;;;;;;;;;;;13.90;52.00;101771.09;1035395;28;1971;-60
2022/03/05 01:35:20;;;;;;;;;;;;;;;13.90;52.04;101776.47;1041620;28;689;-60
2022/03/05 01:36:11;;;;;;;;;;;;;;;13.89;52.02;101775.59;1042153;28;791;-60
2022/03/05 01:37:01;;;;;;;;;;;;;;;13.89;52.02;101780.09;1041419;28;689;-60
2022/03/05 01:37:51;;;;;;;;;;;;;;;13.88;51.85;101781.06;1041472;28;776;-60
2022/03/05 01:38:42;;;;;;;;;;;;;;;13.88;52.09;101781.91;1041584;28;717;-59
2022/03/05 01:39:32;;;;;;;;;;;;;;;13.88;52.43;101773.88;1041363;28;1876;-60
2022/03/05 01:40:23;;;;;;;;;;;;;;;13.86;52.00;101770.44;1042046;28;1855;-61
2022/03/05 01:41:13;;;;;;;;;;;;;;;13.87;52.20;101772.16;1041543;28;705;-61
2022/03/05 01:42:04;;;;;;;;;;;;;;;13.87;52.46;101777.53;1041282;28;2150;-61
2022/03/05 01:42:55;;;;;;;;;;;;;;;13.87;51.70;101777.53;1041457;28;730;-60
2022/03/05 01:43:45;;;;;;;;;;;;;;;13.86;52.37;101769.56;1042053;28;711;-60
2022/03/05 01:44:36;;;;;;;;;;;;;;;13.86;52.05;101772.25;1041913;28;1868;-60
2022/03/05 01:45:26;;;;;;;;;;;;;;;13.85;52.36;101773.22;1033325;28;765;-61
2022/03/05 01:46:17;;;;;;;;;;;;;;;13.85;52.72;101774.06;1034578;28;830;-60
2022/03/05 01:47:08;;;;;;;;;;;;;;;13.84;51.91;101766.13;1033488;28;690;-61
2022/03/05 01:47:58;;;;;;;;;;;;;;;13.84;52.43;101775.03;1034778;28;791;-60
2022/03/05 01:48:48;;;;;;;;;;;;;;;13.84;52.15;101768.81;1038416;28;2004;-61
2022/03/05 01:49:39;;;;;;;;;;;;;;;13.84;52.46;101774.16;1042323;28;823;-60
2022/03/05 01:50:29;;;;;;;;;;;;;;;13.82;52.61;101768.91;1042255;28;913;-60
2022/03/05 01:51:20;;;;;;;;;;;;;;;13.82;51.50;101758.19;1042283;28;660;-60
2022/03/05 01:52:10;;;;;;;;;;;;;;;13.83;51.85;101764.41;1042287;28;641;-60
2022/03/05 01:53:01;;;;;;;;;;;;;;;13.82;52.23;101766.22;1042155;28;835;-60
2022/03/05 01:53:51;;;;;;;;;;;;;;;13.81;52.29;101760.97;1042243;28;713;-60
2022/03/05 01:54:41;;;;;;;;;;;;;;;13.81;52.88;101767.19;1042064;28;1899;-61
2022/03/05 01:55:32;;;;;;;;;;;;;;;13.80;52.14;101767.28;1042318;28;695;-61
2022/03/05 01:56:22;;;;;;;;;;;;;;;13.80;52.09;101764.59;1042280;28;757;-62
2022/03/05 01:57:13;;;;;;;;;;;;;;;13.81;52.42;101764.50;1042291;28;645;-61
2022/03/05 01:58:03;;;;;;;;;;;;;;;13.80;52.47;101760.09;1042187;28;695;-61
2022/03/05 01:58:54;;;;;;;;;;;;;;;13.79;52.32;101765.59;1042163;28;852;-61
2022/03/05 01:59:44;;;;;;;;;;;;;;;13.80;52.16;101768.13;1042056;28;2216;-62
2022/03/05 02:00:34;;;;;;;;;;;;;;;13.79;52.53;101762.91;1042312;28;1805;-62
2022/03/05 02:01:25;;;;;;;;;;;;;;;13.80;52.75;101770.81;1037458;28;1908;-62
2022/03/05 02:02:15;;;;;;;;;;;;;;;13.79;52.51;101757.56;1042290;28;686;-62
2022/03/05 02:03:06;;;;;;;;;;;;;;;13.80;52.38;101767.28;1042819;28;750;-61
2022/03/05 02:03:56;;;;;;;;;;;;;;;13.78;52.90;101766.53;1042243;28;771;-61
2022/03/05 02:04:46;;;;;;;;;;;;;;;13.77;52.62;101763.00;1042136;28;1863;-61
2022/03/05 02:05:37;;;;;;;;;;;;;;;13.76;52.63;101757.75;1034799;28;645;-61
2022/03/05 02:06:27;;;;;;;;;;;;;;;13.76;52.22;101765.78;1032811;28;709;-60
2022/03/05 02:07:18;;;;;;;;;;;;;;;13.74;53.12;101765.00;1036143;28;2031;-61
2022/03/05 02:08:08;;;;;;;;;;;;;;;13.74;53.00;101765.88;1042191;28;685;-61
2022/03/05 02:08:58;;;;;;;;;;;;;;;13.73;52.97;101763.28;1042014;28;1886;-61
2022/03/05 02:09:49;;;;;;;;;;;;;;;13.73;52.20;101764.16;1042234;28;759;-62
2022/03/05 02:10:39;;;;;;;;;;;;;;;13.74;52.58;101762.34;1042179;28;1918;-62
2022/03/05 02:11:30;;;;;;;;;;;;;;;13.74;52.64;101760.50;1042736;28;929;-62
2022/03/05 02:12:20;;;;;;;;;;;;;;;13.75;52.09;101759.56;1042289;28;961;-61
2022/03/05 02:13:11;;;;;;;;;;;;;;;13.74;52.33;101765.00;1042718;28;728;-62
2022/03/05 02:14:01;;;;;;;;;;;;;;;13.74;53.05;101759.66;1042082;28;662;-62
2022/03/05 02:14:51;;;;;;;;;;;;;;;13.73;53.02;101755.25;1042211;28;717;-62
2022/03/05 02:15:42;;;;;;;;;;;;;;;13.72;52.97;101759.75;1042051;28;836;-63
2022/03/05 02:16:32;;;;;;;;;;;;;;;13.73;53.13;101757.94;1042185;28;744;-62
2022/03/05 02:17:23;;;;;;;;;;;;;;;13.71;52.30;101758.03;1042822;28;720;-63
2022/03/05 02:18:13;;;;;;;;;;;;;;;13.71;52.44;101760.69;1042588;28;1890;-61
2022/03/05 02:19:05;;;;;;;;;;;;;;;13.71;53.00;101754.50;1041735;28;1995;-63
2022/03/05 02:19:55;;;;;;;;;;;;;;;13.71;53.19;101757.16;1042451;28;1811;-62
2022/03/05 02:20:46;;;;;;;;;;;;;;;13.71;52.60;101758.03;1042203;28;754;-62
2022/03/05 02:21:36;;;;;;;;;;;;;;;13.71;52.20;101762.53;1042215;28;811;-61
2022/03/05 02:22:27;;;;;;;;;;;;;;;13.72;52.97;101756.22;1042824;28;685;-61
2022/03/05 02:23:17;;;;;;;;;;;;;;;13.70;52.62;101764.34;1042199;28;701;-61
2022/03/05 02:24:07;;;;;;;;;;;;;;;13.70;52.89;101761.66;1041857;28;1876;-61
2022/03/05 02:24:59;;;;;;;;;;;;;;;13.71;52.40;101759.84;1033846;28;713;-62
2022/03/05 02:25:49;;;;;;;;;;;;;;;13.70;52.86;101760.81;1036619;28;2117;-61
2022/03/05 02:26:39;;;;;;;;;;;;;;;13.69;52.58;101761.75;1034138;28;753;-61
2022/03/05 02:27:30;;;;;;;;;;;;;;;13.67;52.77;101756.50;1034586;28;776;-60
2022/03/05 02:28:20;;;;;;;;;;;;;;;13.66;52.92;101756.59;1034433;28;791;-61
2022/03/05 02:29:11;;;;;;;;;;;;;;;13.69;53.06;101759.06;1034702;28;670;-61
2022/03/05 02:30:01;;;;;;;;;;;;;;;13.68;52.93;101758.22;1034546;28;784;-62
2022/03/05 02:30:51;;;;;;;;;;;;;;;13.67;52.33;101758.31;1038303;28;1754;-61
2022/03/05 02:31:42;;;;;;;;;;;;;;;13.67;52.89;101758.31;1041673;28;1867;-62
2022/03/05 02:32:32;;;;;;;;;;;;;;;13.67;52.74;101752.94;1042091;28;732;-61
2022/03/05 02:33:23;;;;;;;;;;;;;;;13.67;52.42;101750.28;1042139;28;713;-61
2022/03/05 02:34:13;;;;;;;;;;;;;;;13.64;52.44;101751.31;1042062;28;749;-61
2022/03/05 02:35:04;;;;;;;;;;;;;;;13.65;53.44;101753.03;1042142;28;654;-62
2022/03/05 02:35:54;;;;;;;;;;;;;;;13.64;53.27;101756.69;1042121;28;691;-61
2022/03/05 02:36:45;;;;;;;;;;;;;;;13.64;52.87;101756.69;1042524;28;1924;-61
2022/03/05 02:37:35;;;;;;;;;;;;;;;13.63;53.35;101754.97;1038253;28;685;-61
2022/03/05 02:38:26;;;;;;;;;;;;;;;13.63;53.18;101756.78;1038873;28;1902;-61
2022/03/05 02:39:16;;;;;;;;;;;;;;;13.65;52.71;101753.03;1042544;28;1857;-61
2022/03/05 02:40:07;;;;;;;;;;;;;;;13.65;52.45;101760.22;1042024;28;961;-61
2022/03/05 02:40:57;;;;;;;;;;;;;;;13.63;53.28;101760.31;1041982;28;848;-61
2022/03/05 02:41:47;;;;;;;;;;;;;;;13.63;52.75;101762.13;1042023;28;1884;-60
2022/03/05 02:42:38;;;;;;;;;;;;;;;13.63;53.45;101764.81;1040121;28;2046;-60
2022/03/05 02:43:28;;;;;;;;;;;;;;;13.62;53.39;101765.75;1042092;28;793;-61
2022/03/05 02:44:19;;;;;;;;;;;;;;;13.61;53.15;101764.94;1042674;28;715;-61
2022/03/05 02:45:09;;;;;;;;;;;;;;;13.61;53.35;101756.03;1041981;28;702;-61
2022/03/05 02:46:00;;;;;;;;;;;;;;;13.61;52.71;101762.25;1042094;28;758;-61
2022/03/05 02:46:50;;;;;;;;;;;;;;;13.60;53.14;101762.34;1042298;28;1979;-61
2022/03/05 02:47:41;;;;;;;;;;;;;;;13.60;52.62;101759.66;1041982;28;1856;-61
2022/03/05 02:48:33;;;;;;;;;;;;;;;13.59;53.55;101760.63;1042646;28;755;-61
2022/03/05 02:49:23;;;;;;;;;;;;;;;13.58;53.41;101754.41;1042685;28;767;-61
2022/03/05 02:50:14;;;;;;;;;;;;;;;13.58;53.03;101756.22;1042116;28;683;-60
2022/03/05 02:51:04;;;;;;;;;;;;;;;13.58;52.74;101758.91;1041949;28;853;-62
2022/03/05 02:51:54;;;;;;;;;;;;;;;13.56;53.69;101756.31;1041983;28;704;-60
2022/03/05 02:52:45;;;;;;;;;;;;;;;13.57;53.17;101759.84;1042053;28;696;-61
2022/03/05 02:53:36;;;;;;;;;;;;;;;13.58;53.49;101764.25;1042034;28;697;-61
2022/03/05 02:54:26;;;;;;;;;;;;;;;13.55;52.97;101758.13;1042049;28;713;-61
2022/03/05 02:55:16;;;;;;;;;;;;;;;13.54;53.70;101750.19;1041951;28;851;-61
2022/03/05 02:56:07;;;;;;;;;;;;;;;13.53;52.87;101754.69;1042638;28;709;-61
2022/03/05 02:56:57;;;;;;;;;;;;;;;13.54;52.74;101753.75;1041935;28;800;-60
2022/03/05 02:57:48;;;;;;;;;;;;;;;13.53;53.83;101751.16;1041959;28;1951;-61
2022/03/05 02:58:38;;;;;;;;;;;;;;;13.53;53.81;101753.81;1041983;28;1953;-60
2022/03/05 02:59:28;;;;;;;;;;;;;;;13.53;53.28;101751.16;1041881;28;1899;-62
2022/03/05 03:00:19;;;;;;;;;;;;;;;13.56;53.51;101750.97;1041835;28;1868;-61
2022/03/05 03:01:09;;;;;;;;;;;;;;;13.54;53.79;101752.88;1033811;28;693;-61
2022/03/05 03:02:00;;;;;;;;;;;;;;;13.53;52.89;101743.97;1034310;28;773;-60
2022/03/05 03:02:50;;;;;;;;;;;;;;;13.53;52.58;101746.66;1034382;28;705;-60
2022/03/05 03:03:41;;;;;;;;;;;;;;;13.53;52.70;101751.16;1034349;28;2010;-61
2022/03/05 03:04:31;;;;;;;;;;;;;;;13.53;53.67;101745.78;1038202;28;1950;-61
2022/03/05 03:05:22;;;;;;;;;;;;;;;13.53;53.75;101752.00;1042682;28;825;-62
2022/03/05 03:06:12;;;;;;;;;;;;;;;13.53;53.10;101751.16;1041775;28;1967;-61
2022/03/05 03:07:03;;;;;;;;;;;;;;;13.53;52.98;101745.78;1042013;28;748;-62
2022/03/05 03:07:53;;;;;;;;;;;;;;;13.52;52.92;101747.63;1034343;28;877;-61
2022/03/05 03:08:43;;;;;;;;;;;;;;;13.52;53.57;101752.97;1034402;28;718;-61
2022/03/05 03:09:34;;;;;;;;;;;;;;;13.52;53.72;101749.44;1034488;28;905;-61
2022/03/05 03:10:24;;;;;;;;;;;;;;;13.49;53.15;101755.84;1033326;28;705;-61
2022/03/05 03:11:15;;;;;;;;;;;;;;;13.50;53.61;101752.19;1034525;28;717;-61
2022/03/05 03:12:05;;;;;;;;;;;;;;;13.50;53.51;101752.19;1034258;28;931;-61
2022/03/05 03:12:58;;;;;;;;;;;;;;;13.48;53.00;101748.75;1036389;28;1801;-60
2022/03/05 03:13:49;;;;;;;;;;;;;;;13.49;53.87;101761.19;1042276;28;2116;-60
2022/03/05 03:14:39;;;;;;;;;;;;;;;13.47;53.05;101752.38;1042412;28;1939;-60
2022/03/05 03:15:29;;;;;;;;;;;;;;;13.48;53.99;101748.75;1041810;28;1963;-59
2022/03/05 03:16:20;;;;;;;;;;;;;;;13.48;53.49;101751.44;1042454;28;1932;-59
2022/03/05 03:17:10;;;;;;;;;;;;;;;13.49;53.84;101750.47;1041619;28;1952;-60
2022/03/05 03:18:01;;;;;;;;;;;;;;;13.48;53.37;101754.09;1041775;28;1754;-60
2022/03/05 03:18:51;;;;;;;;;;;;;;;13.48;53.63;101754.09;1042020;28;767;-60
2022/03/05 03:19:41;;;;;;;;;;;;;;;13.46;53.77;101756.03;1041810;28;1878;-59
2022/03/05 03:20:32;;;;;;;;;;;;;;;13.47;53.86;101757.75;1037953;28;2038;-59
2022/03/05 03:21:22;;;;;;;;;;;;;;;13.46;53.84;101755.16;1038710;28;733;-61
2022/03/05 03:22:14;;;;;;;;;;;;;;;13.47;53.18;101756.88;1042382;28;748;-60
2022/03/05 03:23:05;;;;;;;;;;;;;;;13.45;53.03;101753.44;1042392;28;781;-60
2022/03/05 03:23:55;;;;;;;;;;;;;;;13.45;53.44;101756.97;1041980;28;762;-60
2022/03/05 03:24:45;;;;;;;;;;;;;;;13.44;53.17;101749.91;1041882;28;813;-60
2022/03/05 03:25:38;;;;;;;;;;;;;;;13.44;53.25;101751.72;1041801;28;758;-59
2022/03/05 03:26:29;;;;;;;;;;;;;;;13.44;53.52;101752.56;1042346;28;758;-60
2022/03/05 03:27:19;;;;;;;;;;;;;;;13.45;53.16;101756.97;1041956;28;743;-59
2022/03/05 03:28:09;;;;;;;;;;;;;;;13.44;53.15;101752.56;1037983;28;673;-59
2022/03/05 03:29:00;;;;;;;;;;;;;;;13.45;53.75;101754.28;1038700;28;776;-62
2022/03/05 03:29:50;;;;;;;;;;;;;;;13.43;53.92;101750.88;1042341;28;1964;-59
2022/03/05 03:30:41;;;;;;;;;;;;;;;13.43;53.77;101752.69;1041635;28;1940;-60
2022/03/05 03:31:31;;;;;;;;;;;;;;;13.41;53.22;101750.13;1037601;28;1992;-59
2022/03/05 03:32:22;;;;;;;;;;;;;;;13.41;54.10;101751.94;1036424;28;749;-60
2022/03/05 03:33:12;;;;;;;;;;;;;;;13.42;53.36;101754.50;1036045;28;592;-60
2022/03/05 03:34:02;;;;;;;;;;;;;;;13.41;53.69;101760.81;1033565;28;803;-60
2022/03/05 03:34:53;;;;;;;;;;;;;;;13.41;53.70;101752.78;1036908;28;1982;-60
2022/03/05 03:35:43;;;;;;;;;;;;;;;13.41;53.95;101750.13;1035045;28;1762;-60
2022/03/05 03:36:34;;;;;;;;;;;;;;;13.40;53.52;101756.41;1037780;28;1699;-60
2022/03/05 03:37:28;;;;;;;;;;;;;;;13.40;53.10;101751.06;1041882;28;727;-62
2022/03/05 03:38:19;;;;;;;;;;;;;;;13.41;53.99;101757.28;1041893;28;1979;-60
2022/03/05 03:39:09;;;;;;;;;;;;;;;13.40;53.99;101756.41;1041717;28;706;-61
2022/03/05 03:39:59;;;;;;;;;;;;;;;13.40;53.13;101758.25;1041832;28;743;-61
2022/03/05 03:40:50;;;;;;;;;;;;;;;13.38;53.29;101752.97;1042468;28;693;-61
2022/03/05 03:41:40;;;;;;;;;;;;;;;13.40;53.33;101753.75;1041771;28;1856;-60
2022/03/05 03:42:31;;;;;;;;;;;;;;;13.38;54.02;101747.63;1033763;28;728;-60
2022/03/05 03:43:21;;;;;;;;;;;;;;;13.37;53.77;101751.25;1032257;28;831;-61
2022/03/05 03:44:11;;;;;;;;;;;;;;;13.37;53.14;101751.25;1033326;28;771;-60
2022/03/05 03:45:02;;;;;;;;;;;;;;;13.37;53.47;101751.25;1033626;28;775;-61
2022/03/05 03:45:52;;;;;;;;;;;;;;;13.38;53.41;101752.97;1034287;28;839;-60
2022/03/05 03:46:43;;;;;;;;;;;;;;;13.39;53.28;101748.47;1034281;28;950;-60
2022/03/05 03:47:33;;;;;;;;;;;;;;;13.39;53.13;101754.69;1034138;28;842;-61
2022/03/05 03:48:23;;;;;;;;;;;;;;;13.38;53.23;101752.97;1042382;28;1765;-60
2022/03/05 03:49:14;;;;;;;;;;;;;;;13.36;53.76;101749.53;1041719;28;728;-60
2022/03/05 03:50:05;;;;;;;;;;;;;;;13.36;53.18;101749.53;1041939;28;1074;-61
2022/03/05 03:50:55;;;;;;;;;;;;;;;13.36;53.76;101754.03;1042175;28;2073;-61
2022/03/05 03:51:45;;;;;;;;;;;;;;;13.36;53.05;101754.88;1041826;28;766;-61
2022/03/05 03:52:36;;;;;;;;;;;;;;;13.35;53.58;101752.28;1042505;28;772;-60
2022/03/05 03:53:26;;;;;;;;;;;;;;;13.34;53.33;101751.44;1041752;28;947;-60
2022/03/05 03:54:17;;;;;;;;;;;;;;;13.34;53.99;101745.22;1041893;28;634;-60
2022/03/05 03:55:07;;;;;;;;;;;;;;;13.34;53.94;101747.91;1041808;28;645;-62
2022/03/05 03:55:57;;;;;;;;;;;;;;;13.34;53.27;101750.56;1041706;28;728;-60
2022/03/05 03:56:48;;;;;;;;;;;;;;;13.33;53.34;101744.34;1041808;28;792;-61
2022/03/05 03:57:38;;;;;;;;;;;;;;;13.31;53.43;101750.75;1041730;28;780;-60
2022/03/05 03:58:29;;;;;;;;;;;;;;;13.32;53.61;101752.47;1041666;28;1906;-60
2022/03/05 03:59:19;;;;;;;;;;;;;;;13.31;53.99;101756.13;1041712;28;765;-61
2022/03/05 04:00:10;;;;;;;;;;;;;;;13.30;53.71;101749.03;1034133;28;817;-60
2022/03/05 04:01:00;;;;;;;;;;;;;;;13.30;53.91;101746.34;1039310;28;1675;-60
2022/03/05 04:01:50;;;;;;;;;;;;;;;13.29;53.36;101748.19;1041716;28;700;-60
2022/03/05 04:02:41;;;;;;;;;;;;;;;13.29;53.12;101750.84;1041625;28;691;-60
2022/03/05 04:03:31;;;;;;;;;;;;;;;13.30;53.34;101749.91;1041730;28;754;-60
2022/03/05 04:04:22;;;;;;;;;;;;;;;13.30;54.13;101744.53;1041711;28;778;-60
2022/03/05 04:05:12;;;;;;;;;;;;;;;13.29;53.27;101748.19;1041770;28;697;-60
2022/03/05 04:06:02;;;;;;;;;;;;;;;13.28;53.65;101749.13;1041749;28;775;-60
2022/03/05 04:09:11;;;;;;;;;;;;;;;13.29;53.74;101750.00;1040645;28;689;-61
2022/03/05 04:10:02;;;;;;;;;;;;;;;13.28;53.37;101741.09;1033566;28;821;-61
2022/03/05 04:10:52;;;;;;;;;;;;;;;13.29;53.78;101748.19;1034235;28;739;-61
2022/03/05 04:11:43;;;;;;;;;;;;;;;13.28;54.13;101749.13;1034137;28;710;-60
2022/03/05 04:12:33;;;;;;;;;;;;;;;13.28;53.79;101745.59;1034154;28;832;-60
2022/03/05 04:13:23;;;;;;;;;;;;;;;13.28;53.54;101750.94;1034131;28;702;-61
2022/03/05 04:14:14;;;;;;;;;;;;;;;13.27;53.22;101750.09;1034163;28;796;-61
2022/03/05 04:15:04;;;;;;;;;;;;;;;13.26;53.53;101748.34;1034104;28;625;-61
2022/03/05 04:15:55;;;;;;;;;;;;;;;13.25;53.24;101746.66;1034212;28;727;-61
2022/03/05 04:16:45;;;;;;;;;;;;;;;13.27;54.05;101754.56;1039276;28;1830;-60
2022/03/05 04:17:35;;;;;;;;;;;;;;;13.26;53.48;101743.00;1041755;28;702;-60
2022/03/05 04:18:26;;;;;;;;;;;;;;;13.25;53.46;101752.03;1042244;28;1949;-60
2022/03/05 04:19:16;;;;;;;;;;;;;;;13.25;53.70;101744.00;1041681;28;701;-60
2022/03/05 04:20:07;;;;;;;;;;;;;;;13.25;53.19;101748.47;1041770;28;656;-60
2022/03/05 04:20:57;;;;;;;;;;;;;;;13.24;54.02;101752.97;1034081;28;749;-60
2022/03/05 04:21:48;;;;;;;;;;;;;;;13.23;53.12;101747.72;1034198;28;759;-60
2022/03/05 04:22:38;;;;;;;;;;;;;;;13.24;53.14;101741.41;1034138;28;778;-61
2022/03/05 04:23:29;;;;;;;;;;;;;;;13.22;54.06;101748.66;1034045;28;798;-60
2022/03/05 04:24:19;;;;;;;;;;;;;;;13.20;53.52;101749.63;1034222;28;830;-61
2022/03/05 04:25:09;;;;;;;;;;;;;;;13.22;53.73;101746.84;1034148;28;779;-61
2022/03/05 04:26:00;;;;;;;;;;;;;;;13.22;53.38;101746.00;1039460;28;2063;-61
2022/03/05 04:26:50;;;;;;;;;;;;;;;13.23;53.59;101753.94;1041509;28;810;-62
2022/03/05 04:27:41;;;;;;;;;;;;;;;13.20;53.13;101743.41;1041751;28;650;-60